This is the latest recevied weather packets stored in our database for station/object W9QL-13. If no packets are shown the sender has not sent any weather packets the latest 1 day(s).
| Time | Temp. | Humidity | Pressure | Rain* | Wind** | Luminosity | Snow |
|---|---|---|---|---|---|---|---|
| 1777977001 | 9.44° C | 50% | 1005.6 hPa | 0 mm | 2.24 m/s, 10° | - | - |
| 1777976699 | 9.44° C | 50% | 1005.6 hPa | 0 mm | 0.89 m/s, 347° | - | - |
| 1777976369 | 9.44° C | 49% | 1005.2 hPa | 0 mm | 2.68 m/s, 35° | - | - |
| 1777976039 | 9.44° C | 50% | 1005 hPa | 0 mm | 2.68 m/s, 51° | - | - |
| 1777975739 | 9.44° C | 50% | 1004.9 hPa | 0 mm | 2.24 m/s, 32° | - | - |
| 1777975409 | 9.44° C | 51% | 1004.7 hPa | 0 mm | 2.68 m/s, 50° | - | - |
| 1777975109 | 9.44° C | 51% | 1004.8 hPa | 0 mm | 0.45 m/s, 346° | - | - |
| 1777974809 | 9.44° C | 51% | 1005 hPa | 0 mm | 0.89 m/s, 17° | - | - |
| 1777974509 | 9.44° C | 50% | 1004.9 hPa | 0 mm | 2.24 m/s, 33° | - | - |
| 1777974209 | 10° C | 51% | 1004.7 hPa | 0 mm | 2.24 m/s, 15° | - | - |
| 1777973909 | 9.44° C | 51% | 1004.7 hPa | 0 mm | 2.68 m/s, 5° | - | - |
| 1777973609 | 10° C | 51% | 1004.9 hPa | 0 mm | 1.34 m/s, 343° | - | - |
| 1777973279 | 10° C | 51% | 1004.5 hPa | 0 mm | 2.24 m/s, 15° | - | - |
| 1777972979 | 10° C | 51% | 1004.6 hPa | 0 mm | 2.68 m/s, 15° | - | - |
| 1777972679 | 10° C | 51% | 1004.7 hPa | 0 mm | 1.34 m/s, 6° | - | - |
| 1777972349 | 10° C | 51% | 1004.3 hPa | 0 mm | 2.24 m/s, 358° | - | - |
| 1777972049 | 10.56° C | 51% | 1004.3 hPa | 0 mm | 2.68 m/s, 11° | - | - |
| 1777971749 | 10.56° C | 52% | 1004.2 hPa | 0 mm | 2.68 m/s, 8° | - | - |
| 1777971420 | 10.56° C | 52% | 1004.1 hPa | 0 mm | 2.24 m/s, 12° | - | - |
| 1777971119 | 10.56° C | 52% | 1004 hPa | 0 mm | 1.34 m/s, 10° | - | - |
| 1777970788 | 11.11° C | 51% | 1003.8 hPa | 0 mm | 1.34 m/s, 25° | - | - |
| 1777970488 | 11.11° C | 50% | 1003.5 hPa | 0 mm | 2.68 m/s, 8° | - | - |
| 1777970188 | 11.11° C | 51% | 1003.3 hPa | 0 mm | 0.89 m/s, 0° | - | - |
| 1777969888 | 11.11° C | 50% | 1003.3 hPa | 0 mm | 1.34 m/s, 352° | - | - |
| 1777969588 | 11.11° C | 50% | 1003.4 hPa | 0 mm | 0.89 m/s, 358° | - | - |
* Rain latest hour (hover to see other rain measurements)
** Current wind speed in m/s (hover to see current wind gust speed)